sensor_id;sensor_type;location;lat;lon;timestamp;pressure;altitude;pressure_sealevel;temperature
71564;BMP180;59391;52.504;13.438;2023-06-24T00:01:00;101808.00;;;22.30
71564;BMP180;59391;52.504;13.438;2023-06-24T00:03:26;101814.00;;;22.30
71564;BMP180;59391;52.504;13.438;2023-06-24T00:05:52;101808.00;;;22.30
71564;BMP180;59391;52.504;13.438;2023-06-24T00:08:19;101812.00;;;22.30
71564;BMP180;59391;52.504;13.438;2023-06-24T00:10:46;101824.00;;;22.30
71564;BMP180;59391;52.504;13.438;2023-06-24T00:13:13;101819.00;;;22.30
71564;BMP180;59391;52.504;13.438;2023-06-24T00:15:40;101818.00;;;22.30
71564;BMP180;59391;52.504;13.438;2023-06-24T00:18:12;101820.00;;;22.30
71564;BMP180;59391;52.504;13.438;2023-06-24T00:20:38;101823.00;;;22.30
71564;BMP180;59391;52.504;13.438;2023-06-24T00:23:04;101834.00;;;22.30
71564;BMP180;59391;52.504;13.438;2023-06-24T00:25:30;101814.00;;;22.30
71564;BMP180;59391;52.504;13.438;2023-06-24T00:27:56;101823.00;;;22.30
71564;BMP180;59391;52.504;13.438;2023-06-24T00:30:22;101834.00;;;22.30
71564;BMP180;59391;52.504;13.438;2023-06-24T00:32:48;101834.00;;;22.30
71564;BMP180;59391;52.504;13.438;2023-06-24T00:35:14;101828.00;;;22.30
71564;BMP180;59391;52.504;13.438;2023-06-24T00:37:40;101839.00;;;22.20
71564;BMP180;59391;52.504;13.438;2023-06-24T00:40:12;101840.00;;;22.20
71564;BMP180;59391;52.504;13.438;2023-06-24T00:42:44;101837.00;;;22.20
71564;BMP180;59391;52.504;13.438;2023-06-24T00:45:10;101829.00;;;22.20
71564;BMP180;59391;52.504;13.438;2023-06-24T00:47:36;101837.00;;;22.20
71564;BMP180;59391;52.504;13.438;2023-06-24T00:50:02;101838.00;;;22.10
71564;BMP180;59391;52.504;13.438;2023-06-24T00:52:28;101836.00;;;22.10
71564;BMP180;59391;52.504;13.438;2023-06-24T00:54:53;101835.00;;;22.10
71564;BMP180;59391;52.504;13.438;2023-06-24T00:57:21;101833.00;;;22.10
71564;BMP180;59391;52.504;13.438;2023-06-24T00:59:51;101851.00;;;22.10
71564;BMP180;59391;52.504;13.438;2023-06-24T01:02:22;101845.00;;;22.00
71564;BMP180;59391;52.504;13.438;2023-06-24T01:04:54;101841.00;;;22.00
71564;BMP180;59391;52.504;13.438;2023-06-24T01:07:20;101843.00;;;22.00
71564;BMP180;59391;52.504;13.438;2023-06-24T01:09:46;101831.00;;;22.00
71564;BMP180;59391;52.504;13.438;2023-06-24T01:12:12;101838.00;;;21.90
71564;BMP180;59391;52.504;13.438;2023-06-24T01:14:37;101836.00;;;21.90
71564;BMP180;59391;52.504;13.438;2023-06-24T01:17:19;101832.00;;;21.90
71564;BMP180;59391;52.504;13.438;2023-06-24T01:20:00;101840.00;;;21.90
71564;BMP180;59391;52.504;13.438;2023-06-24T01:23:04;101830.00;;;21.80
71564;BMP180;59391;52.504;13.438;2023-06-24T01:25:55;101836.00;;;21.80
71564;BMP180;59391;52.504;13.438;2023-06-24T01:31:27;101828.00;;;21.70
71564;BMP180;59391;52.504;13.438;2023-06-24T01:34:29;101830.00;;;21.70
71564;BMP180;59391;52.504;13.438;2023-06-24T01:37:17;101820.00;;;21.70
71564;BMP180;59391;52.504;13.438;2023-06-24T01:39:57;101823.00;;;21.70
71564;BMP180;59391;52.504;13.438;2023-06-24T01:42:30;101816.00;;;21.70
71564;BMP180;59391;52.504;13.438;2023-06-24T01:44:57;101807.00;;;21.60
71564;BMP180;59391;52.504;13.438;2023-06-24T01:47:26;101823.00;;;21.60
71564;BMP180;59391;52.504;13.438;2023-06-24T01:49:56;101820.00;;;21.60
71564;BMP180;59391;52.504;13.438;2023-06-24T01:52:25;101814.00;;;21.60
71564;BMP180;59391;52.504;13.438;2023-06-24T01:54:55;101816.00;;;21.60
71564;BMP180;59391;52.504;13.438;2023-06-24T01:57:24;101812.00;;;21.60
71564;BMP180;59391;52.504;13.438;2023-06-24T01:59:54;101798.00;;;21.50
71564;BMP180;59391;52.504;13.438;2023-06-24T02:02:21;101813.00;;;21.50
71564;BMP180;59391;52.504;13.438;2023-06-24T02:04:49;101814.00;;;21.50
71564;BMP180;59391;52.504;13.438;2023-06-24T02:07:18;101821.00;;;21.50
71564;BMP180;59391;52.504;13.438;2023-06-24T02:09:46;101821.00;;;21.40
71564;BMP180;59391;52.504;13.438;2023-06-24T02:12:12;101816.00;;;21.40
71564;BMP180;59391;52.504;13.438;2023-06-24T02:14:39;101825.00;;;21.40
71564;BMP180;59391;52.504;13.438;2023-06-24T02:17:08;101816.00;;;21.40
71564;BMP180;59391;52.504;13.438;2023-06-24T02:19:38;101797.00;;;21.40
71564;BMP180;59391;52.504;13.438;2023-06-24T02:22:04;101817.00;;;21.40
71564;BMP180;59391;52.504;13.438;2023-06-24T02:24:36;101813.00;;;21.30
71564;BMP180;59391;52.504;13.438;2023-06-24T02:27:04;101812.00;;;21.30
71564;BMP180;59391;52.504;13.438;2023-06-24T02:29:31;101822.00;;;21.30
71564;BMP180;59391;52.504;13.438;2023-06-24T02:31:57;101814.00;;;21.30
71564;BMP180;59391;52.504;13.438;2023-06-24T02:34:24;101812.00;;;21.30
71564;BMP180;59391;52.504;13.438;2023-06-24T02:36:50;101815.00;;;21.30
71564;BMP180;59391;52.504;13.438;2023-06-24T02:39:15;101820.00;;;21.20
71564;BMP180;59391;52.504;13.438;2023-06-24T02:41:41;101823.00;;;21.20
71564;BMP180;59391;52.504;13.438;2023-06-24T02:44:07;101819.00;;;21.20
71564;BMP180;59391;52.504;13.438;2023-06-24T02:46:35;101832.00;;;21.20
71564;BMP180;59391;52.504;13.438;2023-06-24T02:49:03;101835.00;;;21.10
71564;BMP180;59391;52.504;13.438;2023-06-24T02:51:30;101824.00;;;21.10
71564;BMP180;59391;52.504;13.438;2023-06-24T02:53:57;101831.00;;;21.10
71564;BMP180;59391;52.504;13.438;2023-06-24T02:56:26;101841.00;;;21.10
71564;BMP180;59391;52.504;13.438;2023-06-24T02:58:53;101840.00;;;21.00
71564;BMP180;59391;52.504;13.438;2023-06-24T03:01:20;101844.00;;;21.00
71564;BMP180;59391;52.504;13.438;2023-06-24T03:03:55;101838.00;;;21.00
71564;BMP180;59391;52.504;13.438;2023-06-24T03:06:22;101845.00;;;21.00
71564;BMP180;59391;52.504;13.438;2023-06-24T03:08:49;101844.00;;;20.90
71564;BMP180;59391;52.504;13.438;2023-06-24T03:11:16;101846.00;;;20.90
71564;BMP180;59391;52.504;13.438;2023-06-24T03:13:43;101847.00;;;20.90
71564;BMP180;59391;52.504;13.438;2023-06-24T03:16:09;101858.00;;;20.90
71564;BMP180;59391;52.504;13.438;2023-06-24T03:18:41;101856.00;;;20.90
71564;BMP180;59391;52.504;13.438;2023-06-24T03:21:09;101862.00;;;20.90
71564;BMP180;59391;52.504;13.438;2023-06-24T03:23:35;101861.00;;;20.90
71564;BMP180;59391;52.504;13.438;2023-06-24T03:26:01;101854.00;;;20.90
71564;BMP180;59391;52.504;13.438;2023-06-24T03:28:30;101854.00;;;20.90
71564;BMP180;59391;52.504;13.438;2023-06-24T03:30:57;101862.00;;;20.90
71564;BMP180;59391;52.504;13.438;2023-06-24T03:33:22;101861.00;;;20.90
71564;BMP180;59391;52.504;13.438;2023-06-24T03:35:50;101869.00;;;20.80
71564;BMP180;59391;52.504;13.438;2023-06-24T03:38:16;101876.00;;;20.80
71564;BMP180;59391;52.504;13.438;2023-06-24T03:40:42;101877.00;;;20.80
71564;BMP180;59391;52.504;13.438;2023-06-24T03:43:09;101877.00;;;20.80
71564;BMP180;59391;52.504;13.438;2023-06-24T03:45:35;101879.00;;;20.80
71564;BMP180;59391;52.504;13.438;2023-06-24T03:48:00;101872.00;;;20.80
71564;BMP180;59391;52.504;13.438;2023-06-24T03:50:26;101860.00;;;20.70
71564;BMP180;59391;52.504;13.438;2023-06-24T03:52:52;101869.00;;;20.70
71564;BMP180;59391;52.504;13.438;2023-06-24T03:55:17;101871.00;;;20.70
71564;BMP180;59391;52.504;13.438;2023-06-24T03:57:43;101875.00;;;20.70
71564;BMP180;59391;52.504;13.438;2023-06-24T04:00:09;101874.00;;;20.70
71564;BMP180;59391;52.504;13.438;2023-06-24T04:02:38;101892.00;;;20.70
71564;BMP180;59391;52.504;13.438;2023-06-24T04:05:04;101879.00;;;20.60
71564;BMP180;59391;52.504;13.438;2023-06-24T04:07:32;101881.00;;;20.60
71564;BMP180;59391;52.504;13.438;2023-06-24T04:09:58;101888.00;;;20.60
71564;BMP180;59391;52.504;13.438;2023-06-24T04:12:24;101876.00;;;20.60
71564;BMP180;59391;52.504;13.438;2023-06-24T04:14:49;101883.00;;;20.60
71564;BMP180;59391;52.504;13.438;2023-06-24T04:17:15;101882.00;;;20.50
71564;BMP180;59391;52.504;13.438;2023-06-24T04:19:41;101881.00;;;20.50
71564;BMP180;59391;52.504;13.438;2023-06-24T04:22:07;101882.00;;;20.50
71564;BMP180;59391;52.504;13.438;2023-06-24T04:24:33;101886.00;;;20.50
71564;BMP180;59391;52.504;13.438;2023-06-24T04:26:59;101881.00;;;20.50
71564;BMP180;59391;52.504;13.438;2023-06-24T04:29:24;101900.00;;;20.40
71564;BMP180;59391;52.504;13.438;2023-06-24T04:31:50;101903.00;;;20.40
71564;BMP180;59391;52.504;13.438;2023-06-24T04:34:16;101899.00;;;20.40
71564;BMP180;59391;52.504;13.438;2023-06-24T04:36:42;101910.00;;;20.40
71564;BMP180;59391;52.504;13.438;2023-06-24T04:39:07;101910.00;;;20.40
71564;BMP180;59391;52.504;13.438;2023-06-24T04:41:33;101903.00;;;20.40
71564;BMP180;59391;52.504;13.438;2023-06-24T04:43:59;101903.00;;;20.40
71564;BMP180;59391;52.504;13.438;2023-06-24T04:46:24;101904.00;;;20.40
71564;BMP180;59391;52.504;13.438;2023-06-24T04:48:50;101903.00;;;20.40
71564;BMP180;59391;52.504;13.438;2023-06-24T04:51:16;101899.00;;;20.40
71564;BMP180;59391;52.504;13.438;2023-06-24T04:53:42;101913.00;;;20.40
71564;BMP180;59391;52.504;13.438;2023-06-24T04:56:07;101914.00;;;20.40
71564;BMP180;59391;52.504;13.438;2023-06-24T04:58:33;101914.00;;;20.40
71564;BMP180;59391;52.504;13.438;2023-06-24T05:00:59;101914.00;;;20.40
71564;BMP180;59391;52.504;13.438;2023-06-24T05:03:24;101916.00;;;20.40
71564;BMP180;59391;52.504;13.438;2023-06-24T05:05:50;101921.00;;;20.40
71564;BMP180;59391;52.504;13.438;2023-06-24T05:08:16;101905.00;;;20.40
71564;BMP180;59391;52.504;13.438;2023-06-24T05:10:41;101913.00;;;20.50
71564;BMP180;59391;52.504;13.438;2023-06-24T05:13:07;101922.00;;;20.50
71564;BMP180;59391;52.504;13.438;2023-06-24T05:15:33;101918.00;;;20.50
71564;BMP180;59391;52.504;13.438;2023-06-24T05:17:58;101922.00;;;20.50
71564;BMP180;59391;52.504;13.438;2023-06-24T05:20:24;101909.00;;;20.50
71564;BMP180;59391;52.504;13.438;2023-06-24T05:22:50;101918.00;;;20.50
71564;BMP180;59391;52.504;13.438;2023-06-24T05:25:16;101911.00;;;20.50
71564;BMP180;59391;52.504;13.438;2023-06-24T05:27:42;101913.00;;;20.60
71564;BMP180;59391;52.504;13.438;2023-06-24T05:30:10;101916.00;;;20.60
71564;BMP180;59391;52.504;13.438;2023-06-24T05:32:36;101922.00;;;20.60
71564;BMP180;59391;52.504;13.438;2023-06-24T05:35:01;101927.00;;;20.60
71564;BMP180;59391;52.504;13.438;2023-06-24T05:37:27;101927.00;;;20.60
71564;BMP180;59391;52.504;13.438;2023-06-24T05:39:53;101936.00;;;20.70
71564;BMP180;59391;52.504;13.438;2023-06-24T05:42:19;101940.00;;;20.70
71564;BMP180;59391;52.504;13.438;2023-06-24T05:44:44;101941.00;;;20.70
71564;BMP180;59391;52.504;13.438;2023-06-24T05:47:10;101948.00;;;20.70
71564;BMP180;59391;52.504;13.438;2023-06-24T05:49:36;101956.00;;;20.80
71564;BMP180;59391;52.504;13.438;2023-06-24T05:52:02;101959.00;;;20.80
71564;BMP180;59391;52.504;13.438;2023-06-24T05:54:28;101953.00;;;20.90
71564;BMP180;59391;52.504;13.438;2023-06-24T05:56:53;101952.00;;;21.00
71564;BMP180;59391;52.504;13.438;2023-06-24T05:59:19;101945.00;;;21.00
71564;BMP180;59391;52.504;13.438;2023-06-24T06:01:44;101954.00;;;21.10
71564;BMP180;59391;52.504;13.438;2023-06-24T06:04:10;101938.00;;;21.20
71564;BMP180;59391;52.504;13.438;2023-06-24T06:06:36;101945.00;;;21.20
71564;BMP180;59391;52.504;13.438;2023-06-24T06:09:01;101946.00;;;21.20
71564;BMP180;59391;52.504;13.438;2023-06-24T06:11:27;101937.00;;;21.20
71564;BMP180;59391;52.504;13.438;2023-06-24T06:13:53;101948.00;;;21.20
71564;BMP180;59391;52.504;13.438;2023-06-24T06:16:19;101944.00;;;21.30
71564;BMP180;59391;52.504;13.438;2023-06-24T06:18:45;101944.00;;;21.30
71564;BMP180;59391;52.504;13.438;2023-06-24T06:21:10;101946.00;;;21.30
71564;BMP180;59391;52.504;13.438;2023-06-24T06:23:36;101948.00;;;21.30
71564;BMP180;59391;52.504;13.438;2023-06-24T06:26:02;101936.00;;;21.40
71564;BMP180;59391;52.504;13.438;2023-06-24T06:28:27;101947.00;;;21.40
71564;BMP180;59391;52.504;13.438;2023-06-24T06:30:54;101944.00;;;21.40
71564;BMP180;59391;52.504;13.438;2023-06-24T06:33:19;101950.00;;;21.40
71564;BMP180;59391;52.504;13.438;2023-06-24T06:35:45;101942.00;;;21.50
71564;BMP180;59391;52.504;13.438;2023-06-24T06:38:11;101939.00;;;21.50
71564;BMP180;59391;52.504;13.438;2023-06-24T06:40:37;101924.00;;;21.60
71564;BMP180;59391;52.504;13.438;2023-06-24T06:43:02;101941.00;;;21.60
71564;BMP180;59391;52.504;13.438;2023-06-24T06:45:28;101934.00;;;21.70
71564;BMP180;59391;52.504;13.438;2023-06-24T06:47:53;101947.00;;;21.70
71564;BMP180;59391;52.504;13.438;2023-06-24T06:50:19;101940.00;;;21.70
71564;BMP180;59391;52.504;13.438;2023-06-24T06:52:45;101945.00;;;21.80
71564;BMP180;59391;52.504;13.438;2023-06-24T06:55:10;101946.00;;;21.80
71564;BMP180;59391;52.504;13.438;2023-06-24T06:57:36;101937.00;;;21.80
71564;BMP180;59391;52.504;13.438;2023-06-24T07:00:02;101949.00;;;21.90
71564;BMP180;59391;52.504;13.438;2023-06-24T07:02:28;101941.00;;;21.90
71564;BMP180;59391;52.504;13.438;2023-06-24T07:04:54;101930.00;;;21.90
71564;BMP180;59391;52.504;13.438;2023-06-24T07:07:20;101943.00;;;22.00
71564;BMP180;59391;52.504;13.438;2023-06-24T07:09:45;101944.00;;;22.00
71564;BMP180;59391;52.504;13.438;2023-06-24T07:12:12;101943.00;;;22.10
71564;BMP180;59391;52.504;13.438;2023-06-24T07:14:39;101931.00;;;22.10
71564;BMP180;59391;52.504;13.438;2023-06-24T07:17:05;101936.00;;;22.10
71564;BMP180;59391;52.504;13.438;2023-06-24T07:19:30;101937.00;;;22.10
71564;BMP180;59391;52.504;13.438;2023-06-24T07:21:56;101939.00;;;22.10
71564;BMP180;59391;52.504;13.438;2023-06-24T07:24:24;101949.00;;;22.20
71564;BMP180;59391;52.504;13.438;2023-06-24T07:26:50;101952.00;;;22.20
71564;BMP180;59391;52.504;13.438;2023-06-24T07:29:16;101950.00;;;22.30
71564;BMP180;59391;52.504;13.438;2023-06-24T07:31:41;101945.00;;;22.30
71564;BMP180;59391;52.504;13.438;2023-06-24T07:34:07;101955.00;;;22.40
71564;BMP180;59391;52.504;13.438;2023-06-24T07:36:32;101968.00;;;22.40
71564;BMP180;59391;52.504;13.438;2023-06-24T07:38:58;101970.00;;;22.50
71564;BMP180;59391;52.504;13.438;2023-06-24T07:41:24;101978.00;;;22.60
71564;BMP180;59391;52.504;13.438;2023-06-24T07:43:49;101981.00;;;22.60
71564;BMP180;59391;52.504;13.438;2023-06-24T07:46:17;101972.00;;;22.70
71564;BMP180;59391;52.504;13.438;2023-06-24T07:48:43;101980.00;;;22.70
71564;BMP180;59391;52.504;13.438;2023-06-24T07:51:08;101965.00;;;22.80
71564;BMP180;59391;52.504;13.438;2023-06-24T07:53:34;101969.00;;;22.80
71564;BMP180;59391;52.504;13.438;2023-06-24T07:56:00;101975.00;;;22.90
71564;BMP180;59391;52.504;13.438;2023-06-24T07:58:25;101966.00;;;23.00
71564;BMP180;59391;52.504;13.438;2023-06-24T08:00:51;101945.00;;;23.10
71564;BMP180;59391;52.504;13.438;2023-06-24T08:03:17;101978.00;;;23.10
71564;BMP180;59391;52.504;13.438;2023-06-24T08:05:43;101982.00;;;23.20
71564;BMP180;59391;52.504;13.438;2023-06-24T08:08:08;101977.00;;;23.20
71564;BMP180;59391;52.504;13.438;2023-06-24T08:10:34;101969.00;;;23.30
71564;BMP180;59391;52.504;13.438;2023-06-24T08:13:00;101967.00;;;23.40
71564;BMP180;59391;52.504;13.438;2023-06-24T08:15:26;101964.00;;;23.40
71564;BMP180;59391;52.504;13.438;2023-06-24T08:17:52;101973.00;;;23.40
71564;BMP180;59391;52.504;13.438;2023-06-24T08:20:21;101973.00;;;23.50
71564;BMP180;59391;52.504;13.438;2023-06-24T08:22:47;101971.00;;;23.60
71564;BMP180;59391;52.504;13.438;2023-06-24T08:25:13;101970.00;;;23.70
71564;BMP180;59391;52.504;13.438;2023-06-24T08:27:41;101982.00;;;23.80
71564;BMP180;59391;52.504;13.438;2023-06-24T08:30:08;101986.00;;;24.00
71564;BMP180;59391;52.504;13.438;2023-06-24T08:32:34;101979.00;;;24.00
71564;BMP180;59391;52.504;13.438;2023-06-24T08:35:00;101977.00;;;24.10
71564;BMP180;59391;52.504;13.438;2023-06-24T08:37:26;101982.00;;;24.10
71564;BMP180;59391;52.504;13.438;2023-06-24T08:39:51;101966.00;;;24.20
71564;BMP180;59391;52.504;13.438;2023-06-24T08:42:17;101983.00;;;24.30
71564;BMP180;59391;52.504;13.438;2023-06-24T08:44:42;101979.00;;;24.30
71564;BMP180;59391;52.504;13.438;2023-06-24T08:47:09;101966.00;;;24.40
71564;BMP180;59391;52.504;13.438;2023-06-24T08:49:53;101966.00;;;24.60
71564;BMP180;59391;52.504;13.438;2023-06-24T08:52:26;101975.00;;;24.70
71564;BMP180;59391;52.504;13.438;2023-06-24T08:54:57;101987.00;;;24.80
71564;BMP180;59391;52.504;13.438;2023-06-24T08:57:31;101980.00;;;25.10
71564;BMP180;59391;52.504;13.438;2023-06-24T09:00:00;101963.00;;;25.40
71564;BMP180;59391;52.504;13.438;2023-06-24T09:02:27;101925.00;;;25.80
71564;BMP180;59391;52.504;13.438;2023-06-24T09:04:55;101998.00;;;26.20
71564;BMP180;59391;52.504;13.438;2023-06-24T09:07:30;101952.00;;;26.50
71564;BMP180;59391;52.504;13.438;2023-06-24T09:09:56;101975.00;;;26.90
71564;BMP180;59391;52.504;13.438;2023-06-24T09:12:25;101967.00;;;27.10
71564;BMP180;59391;52.504;13.438;2023-06-24T09:15:03;101997.00;;;27.40
71564;BMP180;59391;52.504;13.438;2023-06-24T09:17:29;102000.00;;;27.70
71564;BMP180;59391;52.504;13.438;2023-06-24T09:23:03;101998.00;;;27.90
71564;BMP180;59391;52.504;13.438;2023-06-24T09:25:32;101985.00;;;28.10
71564;BMP180;59391;52.504;13.438;2023-06-24T09:28:03;101962.00;;;28.30
71564;BMP180;59391;52.504;13.438;2023-06-24T09:30:33;101972.00;;;28.50
71564;BMP180;59391;52.504;13.438;2023-06-24T09:33:02;101988.00;;;28.80
71564;BMP180;59391;52.504;13.438;2023-06-24T09:35:35;101998.00;;;29.00
71564;BMP180;59391;52.504;13.438;2023-06-24T09:38:01;101992.00;;;29.00
71564;BMP180;59391;52.504;13.438;2023-06-24T09:40:27;101942.00;;;29.20
71564;BMP180;59391;52.504;13.438;2023-06-24T09:42:56;101970.00;;;29.30
71564;BMP180;59391;52.504;13.438;2023-06-24T09:45:28;101959.00;;;29.30
71564;BMP180;59391;52.504;13.438;2023-06-24T09:47:55;101971.00;;;29.60
71564;BMP180;59391;52.504;13.438;2023-06-24T09:50:22;101970.00;;;29.80
71564;BMP180;59391;52.504;13.438;2023-06-24T09:52:49;101992.00;;;30.00
71564;BMP180;59391;52.504;13.438;2023-06-24T09:55:17;101992.00;;;30.20
71564;BMP180;59391;52.504;13.438;2023-06-24T09:57:47;101993.00;;;30.30
71564;BMP180;59391;52.504;13.438;2023-06-24T10:00:19;101989.00;;;30.40
71564;BMP180;59391;52.504;13.438;2023-06-24T10:02:45;101977.00;;;30.40
71564;BMP180;59391;52.504;13.438;2023-06-24T10:05:13;101980.00;;;30.50
71564;BMP180;59391;52.504;13.438;2023-06-24T10:07:40;101980.00;;;30.70
71564;BMP180;59391;52.504;13.438;2023-06-24T10:10:07;101977.00;;;30.90
71564;BMP180;59391;52.504;13.438;2023-06-24T10:12:35;101970.00;;;30.90
71564;BMP180;59391;52.504;13.438;2023-06-24T10:15:02;101969.00;;;30.90
71564;BMP180;59391;52.504;13.438;2023-06-24T10:17:29;101963.00;;;30.90
71564;BMP180;59391;52.504;13.438;2023-06-24T10:19:55;101972.00;;;31.00
71564;BMP180;59391;52.504;13.438;2023-06-24T10:22:24;101972.00;;;31.00
71564;BMP180;59391;52.504;13.438;2023-06-24T10:24:52;101965.00;;;31.20
71564;BMP180;59391;52.504;13.438;2023-06-24T10:27:22;101972.00;;;31.30
71564;BMP180;59391;52.504;13.438;2023-06-24T10:29:52;101968.00;;;31.50
71564;BMP180;59391;52.504;13.438;2023-06-24T10:32:21;101971.00;;;31.50
71564;BMP180;59391;52.504;13.438;2023-06-24T10:34:55;101965.00;;;31.50
71564;BMP180;59391;52.504;13.438;2023-06-24T10:37:26;101966.00;;;31.70
71564;BMP180;59391;52.504;13.438;2023-06-24T10:40:00;101976.00;;;31.70
71564;BMP180;59391;52.504;13.438;2023-06-24T10:42:40;101964.00;;;31.70
71564;BMP180;59391;52.504;13.438;2023-06-24T10:47:41;101966.00;;;31.80
71564;BMP180;59391;52.504;13.438;2023-06-24T10:50:17;101962.00;;;31.90
71564;BMP180;59391;52.504;13.438;2023-06-24T10:52:49;101964.00;;;32.00
71564;BMP180;59391;52.504;13.438;2023-06-24T10:55:18;101960.00;;;31.90
71564;BMP180;59391;52.504;13.438;2023-06-24T10:57:45;101951.00;;;31.90
71564;BMP180;59391;52.504;13.438;2023-06-24T11:00:13;101952.00;;;32.10
71564;BMP180;59391;52.504;13.438;2023-06-24T11:02:39;101960.00;;;32.10
71564;BMP180;59391;52.504;13.438;2023-06-24T11:05:06;101950.00;;;32.10
71564;BMP180;59391;52.504;13.438;2023-06-24T11:07:38;101948.00;;;32.30
71564;BMP180;59391;52.504;13.438;2023-06-24T11:10:14;101950.00;;;32.50
71564;BMP180;59391;52.504;13.438;2023-06-24T11:12:41;101955.00;;;32.50
71564;BMP180;59391;52.504;13.438;2023-06-24T11:15:12;101959.00;;;32.60
71564;BMP180;59391;52.504;13.438;2023-06-24T11:17:39;101962.00;;;32.60
71564;BMP180;59391;52.504;13.438;2023-06-24T11:20:11;101952.00;;;32.60
71564;BMP180;59391;52.504;13.438;2023-06-24T11:22:37;101957.00;;;32.70
71564;BMP180;59391;52.504;13.438;2023-06-24T11:25:05;101958.00;;;32.80
71564;BMP180;59391;52.504;13.438;2023-06-24T11:27:31;101946.00;;;32.90
71564;BMP180;59391;52.504;13.438;2023-06-24T11:29:59;101964.00;;;33.00
71564;BMP180;59391;52.504;13.438;2023-06-24T11:32:42;101955.00;;;33.10
71564;BMP180;59391;52.504;13.438;2023-06-24T11:35:10;101954.00;;;33.20
71564;BMP180;59391;52.504;13.438;2023-06-24T11:37:37;101956.00;;;33.30
71564;BMP180;59391;52.504;13.438;2023-06-24T11:40:07;101957.00;;;33.50
71564;BMP180;59391;52.504;13.438;2023-06-24T11:42:41;101953.00;;;33.50
71564;BMP180;59391;52.504;13.438;2023-06-24T11:45:12;101951.00;;;33.70
71564;BMP180;59391;52.504;13.438;2023-06-24T11:47:39;101947.00;;;33.80
71564;BMP180;59391;52.504;13.438;2023-06-24T11:50:06;101952.00;;;34.00
71564;BMP180;59391;52.504;13.438;2023-06-24T11:55:01;101950.00;;;34.30
71564;BMP180;59391;52.504;13.438;2023-06-24T11:58:08;101966.00;;;34.50
71564;BMP180;59391;52.504;13.438;2023-06-24T12:00:39;101939.00;;;34.60
71564;BMP180;59391;52.504;13.438;2023-06-24T12:03:11;101946.00;;;34.80
71564;BMP180;59391;52.504;13.438;2023-06-24T12:05:40;101943.00;;;34.90
71564;BMP180;59391;52.504;13.438;2023-06-24T12:08:20;101942.00;;;35.00
71564;BMP180;59391;52.504;13.438;2023-06-24T12:10:48;101922.00;;;34.80
71564;BMP180;59391;52.504;13.438;2023-06-24T12:13:14;101933.00;;;34.70
71564;BMP180;59391;52.504;13.438;2023-06-24T12:15:41;101952.00;;;34.40
71564;BMP180;59391;52.504;13.438;2023-06-24T12:18:20;101939.00;;;34.20
71564;BMP180;59391;52.504;13.438;2023-06-24T12:20:45;101952.00;;;34.10
71564;BMP180;59391;52.504;13.438;2023-06-24T12:23:11;101943.00;;;34.10
71564;BMP180;59391;52.504;13.438;2023-06-24T12:25:36;101914.00;;;34.00
71564;BMP180;59391;52.504;13.438;2023-06-24T12:28:02;101945.00;;;33.90
71564;BMP180;59391;52.504;13.438;2023-06-24T12:30:28;101943.00;;;33.90
71564;BMP180;59391;52.504;13.438;2023-06-24T12:32:54;101916.00;;;33.90
71564;BMP180;59391;52.504;13.438;2023-06-24T12:35:23;101937.00;;;33.90
71564;BMP180;59391;52.504;13.438;2023-06-24T12:37:51;101937.00;;;34.10
71564;BMP180;59391;52.504;13.438;2023-06-24T12:40:18;101928.00;;;34.30
71564;BMP180;59391;52.504;13.438;2023-06-24T12:42:44;101935.00;;;34.50
71564;BMP180;59391;52.504;13.438;2023-06-24T12:45:10;101930.00;;;34.70
71564;BMP180;59391;52.504;13.438;2023-06-24T12:47:35;101927.00;;;34.90
71564;BMP180;59391;52.504;13.438;2023-06-24T12:50:01;101917.00;;;35.20
71564;BMP180;59391;52.504;13.438;2023-06-24T12:52:32;101928.00;;;35.40
71564;BMP180;59391;52.504;13.438;2023-06-24T12:54:57;101927.00;;;35.70
71564;BMP180;59391;52.504;13.438;2023-06-24T12:57:23;101919.00;;;36.00
71564;BMP180;59391;52.504;13.438;2023-06-24T12:59:49;101925.00;;;36.30
71564;BMP180;59391;52.504;13.438;2023-06-24T13:02:14;101935.00;;;36.50
71564;BMP180;59391;52.504;13.438;2023-06-24T13:04:40;101928.00;;;36.50
71564;BMP180;59391;52.504;13.438;2023-06-24T13:07:05;101927.00;;;36.50
71564;BMP180;59391;52.504;13.438;2023-06-24T13:09:32;101930.00;;;36.40
71564;BMP180;59391;52.504;13.438;2023-06-24T13:11:58;101933.00;;;36.20
71564;BMP180;59391;52.504;13.438;2023-06-24T13:14:23;101941.00;;;35.80
71564;BMP180;59391;52.504;13.438;2023-06-24T13:16:52;101933.00;;;35.40
71564;BMP180;59391;52.504;13.438;2023-06-24T13:19:20;101925.00;;;35.00
71564;BMP180;59391;52.504;13.438;2023-06-24T13:21:46;101941.00;;;34.70
71564;BMP180;59391;52.504;13.438;2023-06-24T13:24:12;101924.00;;;34.30
71564;BMP180;59391;52.504;13.438;2023-06-24T13:26:38;101930.00;;;34.00
71564;BMP180;59391;52.504;13.438;2023-06-24T13:29:04;101932.00;;;33.70
71564;BMP180;59391;52.504;13.438;2023-06-24T13:31:32;101927.00;;;33.40
71564;BMP180;59391;52.504;13.438;2023-06-24T13:33:57;101924.00;;;33.20
71564;BMP180;59391;52.504;13.438;2023-06-24T13:36:35;101917.00;;;33.00
71564;BMP180;59391;52.504;13.438;2023-06-24T13:39:07;101926.00;;;32.80
71564;BMP180;59391;52.504;13.438;2023-06-24T13:41:33;101922.00;;;32.60
71564;BMP180;59391;52.504;13.438;2023-06-24T13:44:06;101928.00;;;32.50
71564;BMP180;59391;52.504;13.438;2023-06-24T13:46:32;101915.00;;;32.40
71564;BMP180;59391;52.504;13.438;2023-06-24T13:48:58;101914.00;;;32.30
71564;BMP180;59391;52.504;13.438;2023-06-24T13:51:25;101911.00;;;32.20
71564;BMP180;59391;52.504;13.438;2023-06-24T13:53:52;101913.00;;;32.10
71564;BMP180;59391;52.504;13.438;2023-06-24T13:56:21;101904.00;;;32.00
71564;BMP180;59391;52.504;13.438;2023-06-24T13:58:47;101904.00;;;31.90